createdAt,value
2023-03-29T00:00:49.911Z,96.00
2023-03-29T00:03:54.098Z,93.85
2023-03-29T00:06:56.431Z,99.54
2023-03-29T00:09:58.726Z,100.00
2023-03-29T00:13:01.435Z,97.90
2023-03-29T00:16:03.752Z,99.50
2023-03-29T00:19:06.190Z,86.79
2023-03-29T00:22:08.388Z,81.52
2023-03-29T00:25:11.859Z,75.93
2023-03-29T00:28:14.794Z,75.82
2023-03-29T00:31:18.234Z,71.48
2023-03-29T00:34:21.337Z,71.61
2023-03-29T00:37:26.856Z,70.98
2023-03-29T00:40:29.024Z,69.37
2023-03-29T00:43:31.233Z,66.13
2023-03-29T00:46:35.005Z,62.73
2023-03-29T00:49:37.644Z,64.36
2023-03-29T00:52:41.648Z,64.64
2023-03-29T00:55:43.765Z,65.01
2023-03-29T00:59:19.163Z,66.89
2023-03-29T01:02:23.051Z,67.01
2023-03-29T01:05:37.722Z,67.74
2023-03-29T01:08:43.762Z,68.29
2023-03-29T01:11:51.256Z,67.23
2023-03-29T01:15:06.819Z,67.24
2023-03-29T01:18:09.643Z,71.23
2023-03-29T01:21:23.610Z,77.83
2023-03-29T01:24:28.822Z,83.84
2023-03-29T01:27:37.956Z,85.62
2023-03-29T01:30:48.771Z,85.06
2023-03-29T01:33:56.383Z,85.50
2023-03-29T01:37:13.511Z,88.10
2023-03-29T01:40:15.955Z,90.86
2023-03-29T01:43:27.233Z,96.58
2023-03-29T01:46:38.654Z,100.00
2023-03-29T01:50:00.951Z,100.00
2023-03-29T01:53:08.302Z,100.00
2023-03-29T01:56:17.552Z,100.00
2023-03-29T01:59:28.918Z,97.42
2023-03-29T02:02:32.018Z,100.00
2023-03-29T02:05:35.832Z,100.00
2023-03-29T02:08:41.892Z,100.00
2023-03-29T02:11:44.936Z,100.00
2023-03-29T02:14:47.188Z,94.43
2023-03-29T02:17:50.944Z,91.67
2023-03-29T02:20:54.697Z,90.90
2023-03-29T02:23:59.665Z,94.64
2023-03-29T02:27:01.900Z,95.55
2023-03-29T02:30:06.271Z,100.00
2023-03-29T02:33:14.041Z,100.00
2023-03-29T02:36:18.727Z,100.00
2023-03-29T02:39:21.388Z,100.00
2023-03-29T02:42:24.712Z,100.00
2023-03-29T02:45:28.003Z,100.00
2023-03-29T02:48:31.457Z,100.00
2023-03-29T02:51:34.405Z,100.00
2023-03-29T02:54:43.021Z,100.00
2023-03-29T02:57:45.565Z,100.00
2023-03-29T03:00:48.841Z,100.00
2023-03-29T03:03:52.052Z,100.00
2023-03-29T03:06:54.475Z,100.00
2023-03-29T03:09:57.786Z,100.00
2023-03-29T03:12:59.966Z,100.00
2023-03-29T03:16:03.224Z,100.00
2023-03-29T03:19:05.634Z,100.00
2023-03-29T03:22:10.113Z,100.00
2023-03-29T03:25:13.022Z,100.00
2023-03-29T03:28:15.232Z,100.00
2023-03-29T03:31:17.629Z,100.00
2023-03-29T03:34:19.855Z,100.00
2023-03-29T03:37:22.628Z,100.00
2023-03-29T03:40:26.583Z,100.00
2023-03-29T03:43:30.331Z,100.00
2023-03-29T03:46:32.508Z,100.00
2023-03-29T03:49:34.762Z,100.00
2023-03-29T03:52:37.050Z,100.00
2023-03-29T03:55:39.705Z,100.00
2023-03-29T03:58:41.970Z,100.00
2023-03-29T04:01:44.221Z,100.00
2023-03-29T04:04:46.631Z,100.00
2023-03-29T04:07:48.880Z,100.00
2023-03-29T04:10:55.230Z,100.00
2023-03-29T04:13:57.753Z,100.00
2023-03-29T04:16:59.901Z,100.00
2023-03-29T04:20:07.029Z,100.00
2023-03-29T04:23:09.251Z,100.00
2023-03-29T04:26:12.180Z,100.00
2023-03-29T04:29:14.352Z,100.00
2023-03-29T04:32:16.540Z,100.00
2023-03-29T04:35:18.820Z,100.00
2023-03-29T04:38:23.532Z,100.00
2023-03-29T04:41:27.416Z,100.00
2023-03-29T04:44:29.664Z,100.00
2023-03-29T04:47:32.757Z,100.00
2023-03-29T04:50:36.583Z,100.00
2023-03-29T04:53:38.795Z,100.00
2023-03-29T04:56:41.135Z,100.00
2023-03-29T04:59:43.378Z,100.00
2023-03-29T05:02:45.815Z,100.00
2023-03-29T05:05:48.172Z,100.00
2023-03-29T05:08:51.291Z,100.00
2023-03-29T05:11:53.461Z,100.00
2023-03-29T05:14:55.727Z,100.00
2023-03-29T05:17:59.019Z,100.00
2023-03-29T05:21:01.473Z,100.00
2023-03-29T05:24:04.709Z,100.00
2023-03-29T05:27:06.898Z,100.00
2023-03-29T05:30:09.693Z,100.00
2023-03-29T05:33:12.113Z,100.00
2023-03-29T05:36:15.878Z,100.00
2023-03-29T05:39:18.376Z,100.00
2023-03-29T05:42:22.603Z,100.00
2023-03-29T05:45:25.069Z,100.00
2023-03-29T05:48:27.429Z,100.00
2023-03-29T05:51:29.646Z,95.41
2023-03-29T05:54:31.814Z,96.58
2023-03-29T05:57:40.598Z,98.48
2023-03-29T06:00:44.055Z,80.88
2023-03-29T06:03:47.389Z,86.81
2023-03-29T06:06:49.835Z,84.05
2023-03-29T06:09:52.040Z,77.26
2023-03-29T06:12:54.547Z,76.73
2023-03-29T06:15:56.769Z,74.29
2023-03-29T06:18:59.277Z,77.10
2023-03-29T06:22:01.463Z,77.25
2023-03-29T06:25:05.078Z,79.44
2023-03-29T06:28:07.715Z,77.50
2023-03-29T06:31:10.314Z,76.44
2023-03-29T06:34:13.798Z,73.91
2023-03-29T06:37:16.067Z,77.16
2023-03-29T06:40:24.751Z,75.75
2023-03-29T06:43:27.282Z,74.92
2023-03-29T06:46:29.615Z,71.05
2023-03-29T06:49:31.797Z,71.91
2023-03-29T06:52:34.075Z,73.72
2023-03-29T06:55:36.395Z,71.51
2023-03-29T06:58:39.177Z,69.86
2023-03-29T07:01:42.805Z,65.09
2023-03-29T07:04:46.139Z,64.77
2023-03-29T07:08:00.197Z,64.14
2023-03-29T07:11:03.687Z,65.04
2023-03-29T07:14:06.226Z,64.42
2023-03-29T07:17:08.599Z,60.70
2023-03-29T07:20:14.178Z,61.56
2023-03-29T07:23:17.095Z,58.90
2023-03-29T07:26:28.897Z,59.93
2023-03-29T07:29:32.487Z,57.21
2023-03-29T07:32:36.333Z,58.60
2023-03-29T07:35:39.799Z,57.43
2023-03-29T07:38:42.109Z,58.16
2023-03-29T07:41:44.324Z,59.00
2023-03-29T07:44:48.456Z,59.24
2023-03-29T07:47:54.977Z,56.93
2023-03-29T07:50:57.530Z,56.64
2023-03-29T07:53:59.956Z,55.38
2023-03-29T07:57:02.263Z,56.12
2023-03-29T08:00:15.054Z,55.98
2023-03-29T08:03:17.811Z,55.07
2023-03-29T08:06:20.101Z,54.27
2023-03-29T08:09:22.432Z,53.49
2023-03-29T08:12:25.132Z,50.40
2023-03-29T08:15:28.058Z,49.32
2023-03-29T08:18:32.841Z,50.28
2023-03-29T08:21:37.170Z,47.35
2023-03-29T08:24:39.470Z,43.45
2023-03-29T08:27:42.613Z,45.50
2023-03-29T08:30:44.968Z,45.50
2023-03-29T08:33:47.261Z,45.22
2023-03-29T08:40:49.608Z,42.77
2023-03-29T08:44:20.557Z,40.12
2023-03-29T08:47:39.986Z,40.88
2023-03-29T08:50:52.782Z,39.88
2023-03-29T08:54:11.481Z,43.53
2023-03-29T08:57:21.196Z,41.98
2023-03-29T09:00:57.996Z,41.96
2023-03-29T09:04:03.300Z,42.57
2023-03-29T09:07:09.157Z,42.30
2023-03-29T09:10:18.358Z,41.15
2023-03-29T09:13:32.799Z,42.40
2023-03-29T09:17:01.171Z,41.53
2023-03-29T09:20:14.481Z,40.70
2023-03-29T09:23:25.913Z,41.83
2023-03-29T09:26:37.482Z,41.07
2023-03-29T09:29:39.507Z,41.68
2023-03-29T09:33:01.953Z,40.05
2023-03-29T09:36:10.001Z,41.56
2023-03-29T09:39:14.992Z,40.95
2023-03-29T09:42:17.968Z,41.31
2023-03-29T09:45:20.238Z,41.77
2023-03-29T09:48:23.268Z,41.08
2023-03-29T09:51:28.037Z,41.35
2023-03-29T09:54:30.374Z,40.68
2023-03-29T09:57:32.559Z,39.66
2023-03-29T10:00:34.777Z,41.61
2023-03-29T10:03:37.127Z,40.10
2023-03-29T10:06:49.311Z,40.40
2023-03-29T10:09:52.164Z,40.61
2023-03-29T10:12:59.167Z,37.90
2023-03-29T10:16:04.964Z,39.48
2023-03-29T10:19:24.046Z,40.95
2023-03-29T10:22:28.577Z,38.21
2023-03-29T10:25:32.947Z,39.46
2023-03-29T10:28:36.650Z,39.12
2023-03-29T10:33:00.060Z,38.98
2023-03-29T10:36:05.379Z,40.09
2023-03-29T10:39:09.986Z,40.90
2023-03-29T10:42:17.549Z,41.11
2023-03-29T10:45:31.742Z,39.10
2023-03-29T10:48:35.557Z,40.64
2023-03-29T10:51:37.736Z,41.08
2023-03-29T10:54:39.977Z,40.69
2023-03-29T10:57:57.554Z,39.09
2023-03-29T11:01:00.011Z,40.52
2023-03-29T11:04:40.786Z,42.46
2023-03-29T11:07:48.722Z,39.66
2023-03-29T11:11:14.193Z,40.36
2023-03-29T11:14:34.652Z,40.71
2023-03-29T11:17:58.591Z,41.33
2023-03-29T11:21:29.144Z,40.35
2023-03-29T11:24:46.889Z,43.18
2023-03-29T11:28:26.378Z,40.72
2023-03-29T11:31:31.337Z,39.54
2023-03-29T11:35:06.489Z,42.11
2023-03-29T11:38:35.331Z,41.32
2023-03-29T11:41:43.970Z,40.95
2023-03-29T11:44:48.430Z,41.58
2023-03-29T11:47:52.972Z,40.69
2023-03-29T11:51:00.876Z,41.83
2023-03-29T11:54:19.501Z,44.11
2023-03-29T11:57:46.682Z,43.08
2023-03-29T12:00:52.837Z,41.72
2023-03-29T12:04:02.682Z,41.89
2023-03-29T12:07:12.095Z,42.83
2023-03-29T12:10:23.531Z,43.45
2023-03-29T12:13:33.058Z,42.35
2023-03-29T12:16:44.108Z,42.88
2023-03-29T12:20:10.886Z,41.77
2023-03-29T12:23:14.965Z,41.01
2023-03-29T12:26:42.488Z,41.11
2023-03-29T12:29:53.738Z,40.49
2023-03-29T12:33:02.282Z,40.68
2023-03-29T12:36:32.606Z,41.45
2023-03-29T12:39:36.776Z,39.64
2023-03-29T12:42:52.734Z,40.89
2023-03-29T12:45:58.377Z,40.94
2023-03-29T12:49:09.588Z,41.42
2023-03-29T12:52:27.174Z,40.29
2023-03-29T12:55:42.347Z,40.00
2023-03-29T12:59:05.653Z,40.97
2023-03-29T13:02:14.161Z,41.39
2023-03-29T13:05:34.704Z,40.52
2023-03-29T13:08:46.009Z,40.89
2023-03-29T13:12:04.131Z,40.13
2023-03-29T13:15:22.054Z,39.32
2023-03-29T13:18:39.423Z,39.48
2023-03-29T13:21:49.736Z,39.79
2023-03-29T13:25:17.925Z,40.01
2023-03-29T13:28:58.499Z,40.13
2023-03-29T13:32:17.723Z,40.02
2023-03-29T13:35:31.984Z,41.86
2023-03-29T13:38:53.731Z,41.17
2023-03-29T13:42:21.648Z,41.47
2023-03-29T13:45:29.348Z,41.66
2023-03-29T13:48:33.716Z,41.28
2023-03-29T13:51:41.241Z,41.95
2023-03-29T13:54:53.351Z,41.49
2023-03-29T13:58:06.477Z,40.79
2023-03-29T14:01:17.755Z,41.94
2023-03-29T14:04:43.944Z,42.31
2023-03-29T14:07:51.630Z,40.73
2023-03-29T14:10:54.553Z,42.37
2023-03-29T14:13:59.079Z,42.87
2023-03-29T14:17:01.898Z,41.79
2023-03-29T14:20:09.098Z,40.75
2023-03-29T14:23:14.342Z,41.32
2023-03-29T14:26:20.569Z,41.53
2023-03-29T14:29:25.397Z,40.95
2023-03-29T14:32:30.022Z,40.46
2023-03-29T14:35:33.230Z,41.87
2023-03-29T14:38:36.153Z,42.89
2023-03-29T14:41:39.154Z,41.64
2023-03-29T14:44:42.398Z,40.74
2023-03-29T14:47:46.043Z,41.02
2023-03-29T14:50:48.483Z,41.67
2023-03-29T14:53:50.676Z,42.02
2023-03-29T14:56:53.112Z,42.37
2023-03-29T14:59:59.744Z,42.68
2023-03-29T15:03:02.849Z,43.10
2023-03-29T15:06:05.804Z,43.91
2023-03-29T15:09:16.340Z,44.75
2023-03-29T15:12:18.539Z,45.37
2023-03-29T15:15:21.344Z,45.75
2023-03-29T15:18:35.116Z,45.98
2023-03-29T15:21:38.554Z,46.74
2023-03-29T15:24:48.089Z,47.69
2023-03-29T15:27:57.968Z,46.43
2023-03-29T15:31:11.647Z,47.51
2023-03-29T15:34:25.380Z,46.73
2023-03-29T15:37:28.106Z,47.34
2023-03-29T15:40:30.331Z,48.84
2023-03-29T15:43:32.580Z,48.62
2023-03-29T15:46:34.826Z,49.19
2023-03-29T15:49:37.042Z,49.57
2023-03-29T15:52:39.639Z,47.80
2023-03-29T15:55:44.814Z,46.99
2023-03-29T15:58:47.395Z,48.08
2023-03-29T16:01:49.734Z,49.27
2023-03-29T16:04:51.946Z,50.68
2023-03-29T16:07:54.125Z,50.37
2023-03-29T16:10:56.318Z,52.21
2023-03-29T16:13:58.786Z,51.12
2023-03-29T16:17:02.804Z,52.24
2023-03-29T16:20:05.884Z,52.04
2023-03-29T16:23:11.987Z,52.05
2023-03-29T16:26:19.281Z,52.81
2023-03-29T16:29:21.531Z,52.56
2023-03-29T16:32:23.765Z,53.64
2023-03-29T16:35:31.342Z,52.09
2023-03-29T16:38:34.183Z,52.93
2023-03-29T16:41:37.058Z,52.08
2023-03-29T16:44:39.348Z,53.19
2023-03-29T16:47:44.779Z,52.85
2023-03-29T16:50:50.713Z,52.70
2023-03-29T16:53:53.098Z,53.15
2023-03-29T16:56:55.482Z,53.83
2023-03-29T16:59:57.764Z,53.87
2023-03-29T17:03:03.189Z,53.19
2023-03-29T17:06:06.788Z,53.51
2023-03-29T17:09:09.750Z,53.57
2023-03-29T17:12:12.476Z,54.12
2023-03-29T17:15:15.112Z,54.24
2023-03-29T17:18:17.299Z,56.23
2023-03-29T17:21:19.707Z,56.88
2023-03-29T17:24:21.906Z,56.27
2023-03-29T17:27:24.089Z,56.05
2023-03-29T17:30:26.281Z,56.24
2023-03-29T17:33:28.692Z,57.10
2023-03-29T17:36:33.841Z,56.55
2023-03-29T17:39:37.846Z,56.71
2023-03-29T17:42:41.407Z,57.25
2023-03-29T17:45:43.814Z,56.79
2023-03-29T17:48:50.980Z,56.75
2023-03-29T17:51:53.752Z,56.99
2023-03-29T17:54:55.967Z,57.21
2023-03-29T17:57:58.425Z,57.73
2023-03-29T18:01:07.831Z,59.43
2023-03-29T18:04:10.516Z,59.78
2023-03-29T18:07:13.148Z,58.78
2023-03-29T18:10:17.212Z,60.76
2023-03-29T18:13:25.318Z,58.99
2023-03-29T18:16:28.132Z,59.51
2023-03-29T18:19:30.862Z,59.12
2023-03-29T18:22:34.263Z,61.14
2023-03-29T18:25:36.838Z,58.67
2023-03-29T18:28:40.308Z,60.98
2023-03-29T18:31:43.637Z,59.48
2023-03-29T18:34:46.127Z,63.33
2023-03-29T18:37:48.695Z,61.19
2023-03-29T18:40:51.540Z,61.82
2023-03-29T18:43:57.734Z,62.00
2023-03-29T18:46:59.909Z,62.65
2023-03-29T18:50:02.808Z,63.62
2023-03-29T18:53:05.313Z,63.69
2023-03-29T18:56:08.095Z,63.84
2023-03-29T18:59:10.327Z,64.39
2023-03-29T19:02:12.827Z,64.38
2023-03-29T19:05:15.250Z,65.09
2023-03-29T19:08:17.402Z,65.22
2023-03-29T19:11:20.001Z,66.46
2023-03-29T19:14:25.291Z,67.97
2023-03-29T19:17:28.179Z,68.21
2023-03-29T19:20:35.014Z,69.84
2023-03-29T19:23:39.307Z,71.08
2023-03-29T19:26:43.548Z,72.44
2023-03-29T19:29:48.106Z,72.40
2023-03-29T19:32:51.518Z,73.84
2023-03-29T19:35:54.065Z,73.89
2023-03-29T19:38:57.988Z,74.64
2023-03-29T19:42:00.174Z,74.95
2023-03-29T19:45:03.939Z,75.32
2023-03-29T19:48:07.132Z,75.20
2023-03-29T19:51:09.334Z,75.09
2023-03-29T19:54:14.686Z,76.22
2023-03-29T19:57:17.761Z,76.57
2023-03-29T20:00:24.454Z,80.85
2023-03-29T20:03:29.883Z,82.76
2023-03-29T20:06:32.387Z,83.73
2023-03-29T20:09:34.802Z,81.38
2023-03-29T20:12:37.162Z,79.79
2023-03-29T20:15:39.790Z,80.50
2023-03-29T20:18:44.777Z,78.96
2023-03-29T20:21:50.660Z,78.57
2023-03-29T20:24:53.201Z,80.70
2023-03-29T20:27:57.286Z,80.14
2023-03-29T20:31:03.902Z,78.11
2023-03-29T20:34:06.283Z,82.56
2023-03-29T20:37:08.575Z,85.14
2023-03-29T20:40:11.368Z,93.18
2023-03-29T20:43:18.311Z,85.66
2023-03-29T20:46:23.892Z,81.86
2023-03-29T20:49:26.376Z,81.38
2023-03-29T20:52:28.778Z,90.65
2023-03-29T20:55:33.176Z,97.72
2023-03-29T20:58:35.373Z,100.00
2023-03-29T21:01:40.752Z,98.45
2023-03-29T21:04:44.066Z,98.55
2023-03-29T21:07:48.025Z,98.77
2023-03-29T21:10:51.688Z,93.46
2023-03-29T21:13:54.067Z,94.81
2023-03-29T21:16:56.701Z,89.97
2023-03-29T21:19:59.105Z,97.13
2023-03-29T21:23:01.447Z,100.00
2023-03-29T21:26:04.623Z,100.00
2023-03-29T21:29:07.295Z,100.00
2023-03-29T21:32:10.788Z,100.00
2023-03-29T21:35:13.165Z,100.00
2023-03-29T21:38:15.974Z,99.89
2023-03-29T21:41:18.849Z,99.71
2023-03-29T21:44:21.281Z,94.86
2023-03-29T21:47:23.518Z,95.49
2023-03-29T21:50:26.177Z,93.28
2023-03-29T21:53:28.588Z,91.14
2023-03-29T21:56:30.831Z,90.11
2023-03-29T21:59:33.187Z,86.84
2023-03-29T22:02:35.697Z,88.26
2023-03-29T22:05:38.119Z,89.15
2023-03-29T22:08:40.696Z,89.01
2023-03-29T22:11:44.670Z,85.10
2023-03-29T22:14:47.238Z,82.87
2023-03-29T22:17:50.474Z,83.21
2023-03-29T22:20:52.770Z,83.89
2023-03-29T22:23:56.393Z,82.54
2023-03-29T22:26:58.730Z,83.27
2023-03-29T22:30:00.921Z,82.47
2023-03-29T22:33:03.247Z,83.67
2023-03-29T22:36:14.089Z,82.32
2023-03-29T22:39:16.381Z,81.54
2023-03-29T22:42:18.957Z,80.80
2023-03-29T22:45:21.215Z,79.67
2023-03-29T22:48:23.390Z,80.85
2023-03-29T22:51:25.658Z,81.13
2023-03-29T22:54:30.691Z,82.96
2023-03-29T22:57:33.122Z,83.37
2023-03-29T23:00:35.755Z,84.93
2023-03-29T23:03:38.087Z,86.77
2023-03-29T23:06:40.402Z,88.16
2023-03-29T23:09:42.589Z,88.45
2023-03-29T23:12:44.884Z,87.22
2023-03-29T23:15:48.588Z,88.56
2023-03-29T23:18:50.930Z,90.12
2023-03-29T23:21:53.138Z,93.93
2023-03-29T23:24:55.265Z,93.26
2023-03-29T23:27:57.538Z,96.26
2023-03-29T23:31:05.725Z,99.73
2023-03-29T23:34:09.208Z,100.00
2023-03-29T23:37:11.392Z,99.10
2023-03-29T23:40:14.110Z,100.00
2023-03-29T23:43:17.016Z,100.00
2023-03-29T23:46:19.224Z,100.00
2023-03-29T23:49:22.793Z,100.00
2023-03-29T23:52:24.979Z,100.00
2023-03-29T23:55:27.310Z,100.00
2023-03-29T23:58:30.980Z,100.00
